Time;durP1;ratioP1;P1;durP2;ratioP2;P2;SDS_P1;SDS_P2;PMS_P1;PMS_P2;Temp;Humidity;BMP_temperature;BMP_pressure;BME280_temperature;BME280_humidity;BME280_pressure;Samples;Min_cycle;Max_cycle;Signal;HPM_P1;HPM_P2
2021/12/03 00:01:20;;;;;;;10.95;9.80;;;;;;;19.01;50.40;99756.06;5135822;27;20070;-78
2021/12/03 00:03:48;;;;;;;13.13;10.10;;;;;;;19.02;50.56;99764.94;5135566;27;20051;-78
2021/12/03 00:06:17;;;;;;;12.02;10.68;;;;;;;19.02;50.39;99759.56;5135630;27;20047;-79
2021/12/03 00:08:45;;;;;;;9.77;8.77;;;;;;;19.02;50.41;99760.41;5135338;27;20050;-78
2021/12/03 00:11:13;;;;;;;10.77;9.43;;;;;;;19.02;50.20;99763.09;5135176;27;20051;-78
2021/12/03 00:13:42;;;;;;;11.20;9.88;;;;;;;19.02;50.44;99773.81;5135437;27;20046;-79
2021/12/03 00:16:11;;;;;;;10.57;9.35;;;;;;;19.03;50.22;99775.50;5135903;27;20390;-77
2021/12/03 00:18:39;;;;;;;11.13;9.40;;;;;;;19.04;50.22;99779.06;5135138;27;20043;-78
2021/12/03 00:21:08;;;;;;;11.10;9.27;;;;;;;19.04;50.14;99789.78;5135070;27;20046;-78
2021/12/03 00:23:37;;;;;;;11.27;9.65;;;;;;;19.04;50.24;99789.78;5134735;27;20043;-79
2021/12/03 00:26:08;;;;;;;10.82;9.73;;;;;;;19.04;50.11;99795.16;5133168;27;20058;-79
2021/12/03 00:28:37;;;;;;;12.13;10.25;;;;;;;19.05;49.96;99801.34;5134894;27;20047;-79
2021/12/03 00:31:07;;;;;;;11.73;9.98;;;;;;;19.04;50.13;99800.50;5134480;27;20046;-78
2021/12/03 00:33:36;;;;;;;12.63;10.02;;;;;;;19.05;50.05;99804.88;5134821;27;20046;-78
2021/12/03 00:36:06;;;;;;;11.38;9.52;;;;;;;19.05;50.06;99814.75;5134783;27;20043;-79
2021/12/03 00:38:39;;;;;;;9.82;8.82;;;;;;;19.05;50.16;99818.28;5134793;27;20406;-79
2021/12/03 00:41:10;;;;;;;10.55;8.95;;;;;;;19.05;49.92;99814.75;5135233;27;20043;-79
2021/12/03 00:43:42;;;;;;;10.00;8.95;;;;;;;19.05;50.18;99817.44;5135221;27;20512;-79
2021/12/03 00:46:12;;;;;;;11.40;9.98;;;;;;;19.05;49.96;99825.50;5135287;27;20050;-79
2021/12/03 00:48:40;;;;;;;13.07;10.00;;;;;;;19.06;49.96;99836.06;5135390;27;20066;-78
2021/12/03 00:51:09;;;;;;;10.25;9.25;;;;;;;19.05;49.96;99837.06;5133408;27;20410;-78
2021/12/03 00:53:38;;;;;;;10.68;9.60;;;;;;;19.05;49.96;99838.91;5134714;27;20039;-78
2021/12/03 00:56:08;;;;;;;10.07;9.18;;;;;;;19.05;50.04;99837.06;5135265;27;20050;-78
2021/12/03 00:58:35;;;;;;;11.27;10.13;;;;;;;19.05;49.89;99836.22;5135189;28;20047;-78
2021/12/03 01:01:04;;;;;;;11.00;9.90;;;;;;;19.05;49.87;99844.28;5134412;28;20057;-77
2021/12/03 01:03:35;;;;;;;10.93;9.25;;;;;;;19.05;49.52;99838.91;5134541;28;20047;-77
2021/12/03 01:06:05;;;;;;;10.38;9.25;;;;;;;19.05;49.97;99845.09;5134935;28;20117;-77
2021/12/03 01:08:35;;;;;;;10.13;9.13;;;;;;;19.06;50.12;99837.91;5134947;28;20043;-77
2021/12/03 01:11:05;;;;;;;10.73;9.63;;;;;;;19.06;49.99;99843.28;5135021;28;20043;-77
2021/12/03 01:13:34;;;;;;;10.20;9.20;;;;;;;19.07;49.89;99847.63;5133029;28;20047;-77
2021/12/03 01:16:02;;;;;;;10.77;9.68;;;;;;;19.08;49.83;99850.19;5134370;28;20050;-78
2021/12/03 01:18:30;;;;;;;11.18;9.63;;;;;;;19.07;49.72;99853.84;5134339;28;20051;-78
2021/12/03 01:20:58;;;;;;;9.40;8.43;;;;;;;19.08;49.77;99860.03;5134398;28;20502;-77
2021/12/03 01:23:25;;;;;;;9.50;8.52;;;;;;;19.08;49.90;99865.41;5134827;28;20039;-79
2021/12/03 01:25:53;;;;;;;10.15;8.63;;;;;;;19.07;49.86;99863.72;5133093;28;20043;-79
2021/12/03 01:28:21;;;;;;;10.20;9.20;;;;;;;19.08;49.77;99865.41;5133355;28;20057;-78
2021/12/03 01:30:49;;;;;;;9.95;8.93;;;;;;;19.08;49.62;99863.59;5134732;28;20035;-78
2021/12/03 01:33:17;;;;;;;9.65;8.65;;;;;;;19.09;49.82;99875.16;5134201;28;20050;-78
2021/12/03 01:35:44;;;;;;;10.15;9.15;;;;;;;19.08;49.78;99877.00;5132450;27;20047;-78
2021/12/03 01:38:12;;;;;;;9.75;8.77;;;;;;;19.08;49.74;99877.00;5138581;27;20057;-78
2021/12/03 01:40:41;;;;;;;11.45;8.82;;;;;;;19.08;49.82;99882.38;5138838;27;20047;-78
2021/12/03 01:43:10;;;;;;;10.27;8.90;;;;;;;19.08;49.71;99882.38;5136362;27;20047;-79
2021/12/03 01:45:39;;;;;;;10.68;9.45;;;;;;;19.08;49.70;99893.09;5138066;27;20043;-79
2021/12/03 01:48:07;;;;;;;11.10;9.13;;;;;;;19.08;49.59;99889.53;5138860;27;20047;-79
2021/12/03 01:50:38;;;;;;;9.80;8.43;;;;;;;19.08;49.67;99886.88;5136700;27;20054;-78
2021/12/03 01:53:07;;;;;;;10.95;9.18;;;;;;;19.09;49.66;99899.31;5136815;27;20074;-79
2021/12/03 01:55:36;;;;;;;9.00;8.07;;;;;;;19.08;49.70;99898.47;5137816;27;20074;-79
2021/12/03 01:58:05;;;;;;;10.20;8.13;;;;;;;19.08;49.68;99897.59;5136916;27;20043;-79
2021/12/03 02:00:39;;;;;;;9.48;8.50;;;;;;;19.08;49.70;99906.50;5138457;27;20050;-79
2021/12/03 02:03:08;;;;;;;9.82;8.63;;;;;;;19.08;49.66;99902.97;5138580;27;20043;-79
2021/12/03 02:05:37;;;;;;;9.40;8.43;;;;;;;19.09;49.59;99910.03;5136334;27;20047;-79
2021/12/03 02:08:05;;;;;;;9.35;8.45;;;;;;;19.08;49.57;99906.50;5137909;27;20043;-79
2021/12/03 02:10:33;;;;;;;10.70;8.70;;;;;;;19.09;49.52;99916.25;5135802;27;20054;-79
2021/12/03 02:13:01;;;;;;;9.85;8.50;;;;;;;19.08;49.46;99914.56;5137667;27;20109;-78
2021/12/03 02:15:29;;;;;;;9.85;8.55;;;;;;;19.08;49.51;99927.97;5137488;27;20039;-78
2021/12/03 02:17:56;;;;;;;9.52;8.52;;;;;;;19.09;49.49;99929.66;5137439;27;20039;-78
2021/12/03 02:20:25;;;;;;;9.73;8.25;;;;;;;19.08;49.47;99930.66;5137357;27;20051;-78
2021/12/03 02:22:52;;;;;;;10.32;9.02;;;;;;;19.09;49.54;99943.06;5137787;27;20050;-78
2021/12/03 02:25:23;;;;;;;10.77;9.18;;;;;;;19.08;49.38;99949.44;5136125;27;20035;-78
2021/12/03 02:27:53;;;;;;;8.55;7.75;;;;;;;19.10;49.45;99957.31;5138049;27;20047;-78
2021/12/03 02:30:23;;;;;;;10.38;8.43;;;;;;;19.09;49.35;99953.78;5135582;27;20051;-78
2021/12/03 02:32:52;;;;;;;9.95;8.32;;;;;;;19.10;49.43;99963.53;5137421;27;20482;-78
2021/12/03 02:35:21;;;;;;;9.00;8.10;;;;;;;19.09;49.38;99953.78;5137899;27;20043;-78
2021/12/03 02:37:49;;;;;;;11.50;7.90;;;;;;;19.10;49.23;99963.53;5137867;27;20463;-79
2021/12/03 02:40:18;;;;;;;9.32;8.45;;;;;;;19.10;49.36;99960.84;5135785;27;20051;-79
2021/12/03 02:42:46;;;;;;;9.38;8.43;;;;;;;19.11;49.34;99961.69;5137214;27;20039;-79
2021/12/03 02:45:15;;;;;;;12.95;8.70;;;;;;;19.10;49.39;99971.56;5137439;27;20043;-79
2021/12/03 02:47:42;;;;;;;9.30;8.15;;;;;;;19.10;49.22;99968.06;5136712;27;20486;-79
2021/12/03 02:50:12;;;;;;;9.98;8.05;;;;;;;19.10;49.34;99978.78;5136815;27;20046;-79
2021/12/03 02:52:41;;;;;;;9.38;8.40;;;;;;;19.10;49.33;99979.63;5137295;27;20039;-79
2021/12/03 02:55:09;;;;;;;9.45;8.45;;;;;;;19.11;49.28;99988.50;5137228;27;20051;-79
2021/12/03 02:57:37;;;;;;;8.60;7.80;;;;;;;19.10;49.43;99989.50;5137442;27;20043;-79
2021/12/03 03:00:09;;;;;;;8.98;7.70;;;;;;;19.10;49.29;99989.50;5136588;27;20048;-79
2021/12/03 03:02:37;;;;;;;8.85;8.02;;;;;;;19.10;49.32;99992.19;5135351;27;20070;-78
2021/12/03 03:05:05;;;;;;;9.88;8.25;;;;;;;19.09;49.28;99995.88;5136300;27;20062;-78
2021/12/03 03:07:32;;;;;;;8.65;7.75;;;;;;;19.09;49.44;99996.72;5136790;27;20069;-78
2021/12/03 03:10:00;;;;;;;9.20;8.30;;;;;;;19.09;49.49;100006.59;5136700;27;20054;-78
2021/12/03 03:12:27;;;;;;;9.55;8.23;;;;;;;19.09;49.49;100017.34;5136368;27;20398;-78
2021/12/03 03:14:57;;;;;;;8.48;7.68;;;;;;;19.09;49.40;100015.50;5136828;27;20045;-78
2021/12/03 03:17:27;;;;;;;7.40;6.70;;;;;;;19.09;49.37;100026.22;5136154;27;20398;-79
2021/12/03 03:19:56;;;;;;;8.98;7.68;;;;;;;19.08;49.21;100027.22;5136196;27;20055;-79
2021/12/03 03:22:24;;;;;;;9.55;7.82;;;;;;;19.08;49.39;100026.34;5136729;27;20039;-79
2021/12/03 03:24:54;;;;;;;8.35;7.45;;;;;;;19.07;49.25;100030.88;5136058;27;20050;-79
2021/12/03 03:27:22;;;;;;;9.68;7.63;;;;;;;19.08;49.28;100043.31;5136614;27;20043;-79
2021/12/03 03:29:51;;;;;;;8.38;7.57;;;;;;;19.08;49.16;100039.78;5135401;27;20379;-79
2021/12/03 03:32:19;;;;;;;8.35;7.55;;;;;;;19.08;49.33;100047.81;5135901;27;20039;-79
2021/12/03 03:34:46;;;;;;;11.05;7.10;;;;;;;19.08;49.29;100050.50;5135965;27;20398;-79
2021/12/03 03:37:16;;;;;;;9.02;7.13;;;;;;;19.08;49.23;100059.44;5136430;27;20039;-79
2021/12/03 03:39:44;;;;;;;8.13;7.32;;;;;;;19.09;49.25;100061.09;5135440;27;20054;-78
2021/12/03 03:42:12;;;;;;;8.50;7.68;;;;;;;19.10;49.47;100068.16;5135614;27;20039;-78
2021/12/03 03:44:40;;;;;;;7.95;7.22;;;;;;;19.11;49.10;100079.72;5134076;27;20047;-78
2021/12/03 03:47:07;;;;;;;9.35;7.38;;;;;;;19.10;49.21;100081.56;5136018;27;20047;-79
2021/12/03 03:49:35;;;;;;;8.40;7.60;;;;;;;19.10;49.32;100083.41;5135646;27;20043;-79
2021/12/03 03:52:04;;;;;;;8.70;7.80;;;;;;;19.10;49.23;100088.78;5135842;27;20478;-79
2021/12/03 03:54:32;;;;;;;7.30;6.55;;;;;;;19.10;49.13;100097.66;5135966;27;20493;-79
2021/12/03 03:57:00;;;;;;;7.82;7.00;;;;;;;19.10;49.29;100105.72;5133749;27;20051;-79
2021/12/03 03:59:28;;;;;;;8.68;7.18;;;;;;;19.11;49.34;100111.91;5134628;27;20046;-79
2021/12/03 04:01:55;;;;;;;7.45;6.65;;;;;;;19.10;49.35;100110.25;5135597;27;20043;-78
2021/12/03 04:04:23;;;;;;;6.97;6.28;;;;;;;19.11;49.32;100112.75;5135710;27;20521;-78
2021/12/03 04:06:52;;;;;;;8.25;6.90;;;;;;;19.11;49.21;100111.91;5135460;27;20043;-78
2021/12/03 04:09:19;;;;;;;7.45;6.63;;;;;;;19.11;49.36;100126.19;5135316;27;20039;-78
2021/12/03 04:11:47;;;;;;;7.55;6.75;;;;;;;19.11;49.19;100120.81;5135773;27;20050;-78
2021/12/03 04:14:14;;;;;;;7.45;6.75;;;;;;;19.11;49.29;100117.28;5135049;27;20397;-80
2021/12/03 04:16:42;;;;;;;9.90;7.97;;;;;;;19.11;49.43;100136.06;5135117;27;20043;-79
2021/12/03 04:19:09;;;;;;;7.72;6.63;;;;;;;19.12;49.36;100127.00;5135826;27;20050;-79
2021/12/03 04:21:37;;;;;;;8.45;6.90;;;;;;;19.11;49.55;100134.22;5135351;27;20039;-78
2021/12/03 04:24:05;;;;;;;9.10;7.10;;;;;;;19.11;49.35;100134.22;5134281;27;20043;-81
2021/12/03 04:26:33;;;;;;;6.85;6.15;;;;;;;19.11;49.35;100144.97;5133276;27;20055;-79
2021/12/03 04:29:00;;;;;;;7.50;6.72;;;;;;;19.11;49.58;100147.63;5134837;27;20480;-78
2021/12/03 04:31:29;;;;;;;8.48;6.60;;;;;;;19.11;49.47;100136.91;5134884;27;20073;-78
2021/12/03 04:33:56;;;;;;;7.25;6.55;;;;;;;19.11;49.47;100154.84;5135026;27;20467;-78
2021/12/03 04:36:25;;;;;;;8.07;5.80;;;;;;;19.12;49.62;100156.53;5133631;27;20043;-78
2021/12/03 04:38:52;;;;;;;7.30;6.35;;;;;;;19.10;49.60;100154.00;5133170;27;20050;-78
2021/12/03 04:41:20;;;;;;;7.15;6.10;;;;;;;19.10;49.47;100166.56;5134697;27;20072;-79
2021/12/03 04:43:47;;;;;;;8.30;5.80;;;;;;;19.08;49.83;100166.75;5134852;27;20043;-79
2021/12/03 04:46:15;;;;;;;7.35;6.30;;;;;;;19.09;49.47;100168.41;5135206;27;20050;-79
2021/12/03 04:48:42;;;;;;;6.63;5.10;;;;;;;19.09;49.61;100168.41;5134821;27;20057;-78
2021/12/03 04:51:10;;;;;;;6.28;5.28;;;;;;;19.08;49.67;100169.41;5134845;27;20127;-78
2021/12/03 04:53:37;;;;;;;6.65;6.03;;;;;;;19.08;49.51;100176.59;5132832;27;20039;-78
2021/12/03 04:56:05;;;;;;;6.40;5.75;;;;;;;19.07;49.67;100170.38;5134934;27;20046;-78
2021/12/03 04:58:32;;;;;;;5.93;5.32;;;;;;;19.09;49.61;100178.31;5134755;28;20043;-78
2021/12/03 05:01:02;;;;;;;5.93;5.28;;;;;;;19.08;49.60;100182.84;5134421;28;20486;-78
2021/12/03 05:03:29;;;;;;;5.78;4.95;;;;;;;19.07;49.50;100186.47;5134277;28;20039;-79
2021/12/03 05:06:00;;;;;;;7.07;5.82;;;;;;;19.07;49.57;100201.75;5132597;28;20062;-79
2021/12/03 05:08:29;;;;;;;6.10;5.50;;;;;;;19.06;49.64;100200.91;5134759;28;20050;-81
2021/12/03 05:10:58;;;;;;;6.85;5.05;;;;;;;19.05;49.56;100207.25;5136833;27;20050;-80
2021/12/03 05:13:29;;;;;;;6.40;5.00;;;;;;;19.06;49.43;100221.50;5136871;27;20054;-80
2021/12/03 05:15:57;;;;;;;6.25;5.00;;;;;;;19.05;49.56;100225.19;5138905;27;20398;-78
2021/12/03 05:18:27;;;;;;;6.30;5.03;;;;;;;19.03;49.43;100231.53;5138864;27;20398;-78
2021/12/03 05:20:57;;;;;;;5.80;5.20;;;;;;;19.04;49.28;100232.41;5137314;27;20058;-79
2021/12/03 05:23:26;;;;;;;6.40;5.35;;;;;;;19.02;49.51;100243.25;5139128;27;20050;-79
2021/12/03 05:25:54;;;;;;;6.85;4.72;;;;;;;19.02;49.65;100239.72;5138465;27;20048;-79
2021/12/03 05:28:22;;;;;;;6.47;5.60;;;;;;;19.03;49.54;100254.84;5138270;27;20058;-79
2021/12/03 05:30:51;;;;;;;6.03;5.05;;;;;;;19.02;49.56;100262.03;5139106;27;20125;-79
2021/12/03 05:33:22;;;;;;;6.20;5.20;;;;;;;19.02;49.32;100263.88;5138581;27;20047;-79
2021/12/03 05:35:50;;;;;;;5.55;4.72;;;;;;;19.02;49.53;100269.25;5138566;27;20051;-79
2021/12/03 05:38:17;;;;;;;5.03;4.50;;;;;;;19.01;49.40;100279.13;5138187;27;20074;-79
2021/12/03 05:40:46;;;;;;;5.93;4.88;;;;;;;19.00;49.46;100285.50;5138272;27;20047;-78
2021/12/03 05:43:17;;;;;;;4.88;4.10;;;;;;;19.02;49.36;100285.34;5137875;27;20047;-79
2021/12/03 05:45:45;;;;;;;5.97;4.68;;;;;;;19.02;49.57;100290.72;5138091;27;20070;-79
2021/12/03 05:48:13;;;;;;;5.05;4.55;;;;;;;19.01;49.55;100289.03;5138270;27;20043;-80
2021/12/03 05:50:43;;;;;;;5.90;4.40;;;;;;;19.01;49.58;100289.88;5136349;27;20047;-79
2021/12/03 05:53:10;;;;;;;5.40;4.18;;;;;;;19.00;49.46;100290.00;5138149;27;20043;-80
2021/12/03 05:55:37;;;;;;;6.07;4.28;;;;;;;19.00;49.61;100292.69;5136566;27;20050;-80
2021/12/03 05:58:05;;;;;;;9.32;4.40;;;;;;;19.00;49.39;100295.38;5119570;27;20482;-79
2021/12/03 06:00:36;;;;;;;4.32;3.92;;;;;;;19.00;49.39;100301.59;5137784;27;20405;-80
2021/12/03 06:03:04;;;;;;;5.55;3.95;;;;;;;19.01;49.48;100305.13;5137942;27;20474;-78
2021/12/03 06:05:32;;;;;;;6.50;4.00;;;;;;;19.00;49.26;100311.47;5137915;27;20052;-79
2021/12/03 06:08:00;;;;;;;5.93;4.47;;;;;;;19.01;49.30;100316.69;5138200;27;20387;-79
2021/12/03 06:10:28;;;;;;;6.10;4.30;;;;;;;19.01;49.23;100319.38;5137556;27;20486;-79
2021/12/03 06:12:56;;;;;;;5.13;4.35;;;;;;;19.02;49.27;100325.56;5137847;27;20054;-79
2021/12/03 06:15:24;;;;;;;5.90;4.28;;;;;;;19.03;49.26;100329.94;5137513;27;20051;-80
2021/12/03 06:17:51;;;;;;;5.10;4.07;;;;;;;19.04;49.06;100334.34;5138004;27;20479;-80
2021/12/03 06:20:20;;;;;;;5.10;3.25;;;;;;;19.04;48.94;100331.66;5138131;27;20047;-80
2021/12/03 06:22:48;;;;;;;6.63;3.60;;;;;;;19.04;49.09;100334.34;5136514;27;20043;-80
2021/12/03 06:25:18;;;;;;;3.83;3.42;;;;;;;19.05;48.99;100338.72;5137425;27;20046;-80
2021/12/03 06:27:46;;;;;;;4.07;3.63;;;;;;;19.05;48.88;100343.25;5136419;27;20061;-80
2021/12/03 06:30:16;;;;;;;4.85;3.33;;;;;;;19.05;49.16;100345.91;5137229;27;20402;-80
2021/12/03 06:32:43;;;;;;;4.07;3.45;;;;;;;19.05;48.95;100354.81;5137707;27;20051;-79
2021/12/03 06:35:13;;;;;;;5.85;3.85;;;;;;;19.07;49.05;100354.66;5137098;27;20046;-79
2021/12/03 06:37:40;;;;;;;5.85;3.42;;;;;;;19.07;48.93;100362.72;5137618;27;20050;-79
2021/12/03 06:40:13;;;;;;;4.50;3.58;;;;;;;19.06;48.97;100363.72;5137080;27;20521;-79
2021/12/03 06:42:41;;;;;;;5.55;3.53;;;;;;;19.06;49.07;100367.22;5135202;27;20490;-79
2021/12/03 06:45:10;;;;;;;3.63;3.15;;;;;;;19.06;49.10;100382.47;5137420;27;20039;-79
2021/12/03 06:47:38;;;;;;;4.45;3.70;;;;;;;19.05;49.19;100384.31;5137145;27;20371;-79
2021/12/03 06:50:08;;;;;;;3.85;3.20;;;;;;;19.05;48.94;100386.16;5137386;27;20050;-79
2021/12/03 06:52:39;;;;;;;4.10;3.20;;;;;;;19.05;49.32;100396.91;5137815;27;20477;-78
2021/12/03 06:55:10;;;;;;;4.70;3.42;;;;;;;19.04;49.13;100401.41;5135527;27;20039;-78
2021/12/03 06:57:38;;;;;;;5.45;3.10;;;;;;;19.03;49.23;100400.53;5136966;27;20047;-78
2021/12/03 07:00:06;;;;;;;4.63;3.30;;;;;;;19.05;49.06;100418.34;5136782;27;20043;-79
2021/12/03 07:02:33;;;;;;;3.88;3.00;;;;;;;19.03;49.20;100408.59;5136821;27;20046;-79
2021/12/03 07:05:04;;;;;;;4.28;3.47;;;;;;;19.04;49.20;100414.84;5136263;27;20051;-79
2021/12/03 07:07:32;;;;;;;4.18;3.15;;;;;;;19.04;49.30;100425.56;5137298;27;20047;-79
2021/12/03 07:10:01;;;;;;;3.70;2.92;;;;;;;19.02;49.52;100423.00;5117689;27;20044;-79
2021/12/03 07:12:28;;;;;;;6.50;2.88;;;;;;;19.01;49.37;100434.72;5136296;27;20050;-79
2021/12/03 07:14:57;;;;;;;5.68;2.70;;;;;;;19.01;49.37;100455.34;5136822;27;20104;-79
2021/12/03 07:17:29;;;;;;;4.43;2.80;;;;;;;19.01;49.40;100458.88;5136667;27;20470;-79
2021/12/03 07:19:57;;;;;;;5.95;2.80;;;;;;;19.00;49.28;100462.53;5134657;27;20077;-79
2021/12/03 07:22:26;;;;;;;3.30;2.63;;;;;;;19.00;49.29;100470.59;5136568;27;20040;-79
2021/12/03 07:24:54;;;;;;;3.38;2.80;;;;;;;19.00;49.26;100475.97;5136033;27;20486;-79
2021/12/03 07:27:23;;;;;;;3.83;2.95;;;;;;;19.00;49.27;100477.81;5136640;27;20050;-79
2021/12/03 07:29:50;;;;;;;5.18;3.00;;;;;;;19.00;49.07;100491.22;5135997;27;20047;-79
2021/12/03 07:32:21;;;;;;;4.97;3.05;;;;;;;18.99;49.13;100490.34;5136224;27;20390;-79
2021/12/03 07:34:49;;;;;;;3.78;2.90;;;;;;;19.00;48.99;100496.56;5133266;27;20421;-79
2021/12/03 07:37:17;;;;;;;5.03;3.05;;;;;;;19.00;49.00;100496.56;5135789;27;20498;-79
2021/12/03 07:39:44;;;;;;;6.63;3.40;;;;;;;18.98;49.91;100510.09;5136620;27;20364;-80
2021/12/03 07:42:13;;;;;;;8.55;3.63;;;;;;;18.98;50.38;100504.75;5136158;27;20043;-80
2021/12/03 07:44:41;;;;;;;5.35;2.90;;;;;;;18.97;50.27;100511.09;5136240;27;20046;-79
2021/12/03 07:47:09;;;;;;;6.28;2.95;;;;;;;18.96;50.09;100516.63;5136302;27;20386;-79
2021/12/03 07:49:39;;;;;;;5.63;2.75;;;;;;;18.96;49.94;100517.47;5135861;27;20500;-80
2021/12/03 07:52:09;;;;;;;5.40;2.80;;;;;;;18.96;49.82;100528.19;5135714;27;20054;-80
2021/12/03 07:54:36;;;;;;;5.35;3.03;;;;;;;18.97;50.64;100543.28;5094774;27;20490;-82
2021/12/03 07:57:05;;;;;;;4.88;2.42;;;;;;;18.98;50.79;100552.19;5135892;27;20043;-79
2021/12/03 07:59:32;;;;;;;6.60;2.88;;;;;;;18.97;50.64;100562.06;5135476;27;20509;-79
2021/12/03 08:01:59;;;;;;;7.53;3.22;;;;;;;18.97;50.28;100563.91;5136058;27;20054;-79
2021/12/03 08:04:27;;;;;;;13.05;3.30;;;;;;;18.96;50.12;100572.94;5135452;27;20482;-79
2021/12/03 08:06:55;;;;;;;5.10;2.75;;;;;;;18.94;49.54;100578.44;5135274;27;20043;-80
2021/12/03 08:09:23;;;;;;;5.75;3.30;;;;;;;18.93;49.77;100575.91;5135750;27;20047;-78
2021/12/03 08:11:50;;;;;;;5.25;2.40;;;;;;;18.92;48.92;100585.78;5135677;27;20054;-79
2021/12/03 08:14:17;;;;;;;5.22;2.58;;;;;;;18.91;48.95;100596.63;5108425;27;20407;-80
2021/12/03 08:16:45;;;;;;;4.85;2.80;;;;;;;18.90;48.40;100601.16;5094134;28;20051;-80
2021/12/03 08:19:12;;;;;;;8.75;3.25;;;;;;;18.88;48.12;100608.50;5093491;28;20058;-80
2021/12/03 08:21:40;;;;;;;7.57;2.22;;;;;;;18.87;48.08;100620.19;5092891;28;20051;-79
2021/12/03 08:24:07;;;;;;;4.35;2.28;;;;;;;18.87;47.08;100622.88;5094107;28;20063;-79
2021/12/03 08:26:35;;;;;;;7.53;2.42;;;;;;;18.86;46.73;100626.53;5093260;28;20044;-79
2021/12/03 08:29:04;;;;;;;6.28;2.08;;;;;;;18.86;47.80;100625.69;5093860;28;20051;-80
2021/12/03 08:31:32;;;;;;;3.47;2.10;;;;;;;18.86;47.58;100628.38;5093175;28;20047;-81
2021/12/03 08:34:00;;;;;;;5.78;2.00;;;;;;;18.87;48.00;100638.13;5094059;28;20384;-79
2021/12/03 08:36:27;;;;;;;4.63;2.25;;;;;;;18.87;48.04;100635.44;5093877;28;20403;-80
2021/12/03 08:38:55;;;;;;;4.82;2.08;;;;;;;18.87;47.88;100646.16;5093764;28;20423;-79
2021/12/03 08:41:22;;;;;;;5.32;2.13;;;;;;;18.87;47.57;100656.88;5094405;28;20488;-78
2021/12/03 08:43:50;;;;;;;4.85;2.03;;;;;;;18.85;47.18;100651.66;5092766;28;20518;-78
2021/12/03 08:46:29;;;;;;;3.13;2.13;;;;;;;18.84;46.85;100660.69;5093123;28;20075;-78
2021/12/03 08:49:07;;;;;;;4.00;1.95;;;;;;;18.84;46.48;100662.50;5093668;28;20048;-78
2021/12/03 08:54:54;;;;;;;3.25;2.13;;;;;;;18.83;46.65;100685.81;5113858;28;20580;-78
2021/12/03 08:57:01;;;;;;;6.38;1.90;;;;;;;18.82;46.21;100685.94;5106076;28;20070;-79
2021/12/03 08:59:28;;;;;;;2.40;1.60;;;;;;;18.83;46.08;100693.00;5112195;28;20055;-79
2021/12/03 09:01:56;;;;;;;2.83;1.95;;;;;;;18.81;46.83;100695.81;5114862;28;20043;-90
2021/12/03 09:04:23;;;;;;;2.92;1.80;;;;;;;18.82;46.14;100696.69;5112293;28;20126;-91
2021/12/03 09:06:52;;;;;;;4.55;1.92;;;;;;;18.80;45.82;100704.88;5096797;28;20043;-94
2021/12/03 09:09:20;;;;;;;3.35;2.25;;;;;;;18.80;45.72;100701.31;5111849;28;20056;-95
2021/12/03 09:11:47;;;;;;;3.58;2.15;;;;;;;18.79;45.36;100708.50;5105256;28;20435;-93
2021/12/03 09:22:38;;;;;;;3.38;2.40;;;;;;;18.76;45.38;100717.69;5034436;28;20064;-90
2021/12/03 09:25:09;;;;;;;2.60;2.00;;;;;;;18.76;45.59;100730.25;5051941;28;20076;-91
2021/12/03 09:27:37;;;;;;;3.88;2.20;;;;;;;18.76;45.39;100731.09;5050866;28;20539;-94
2021/12/03 09:30:08;;;;;;;2.78;2.35;;;;;;;18.76;45.47;100736.47;5051166;28;20052;-89
2021/12/03 09:32:36;;;;;;;4.93;2.60;;;;;;;18.77;45.63;100739.97;5051290;28;20052;-91
2021/12/03 09:35:04;;;;;;;3.17;2.40;;;;;;;18.76;45.44;100751.69;5050699;28;20056;-90
2021/12/03 09:37:31;;;;;;;4.03;2.60;;;;;;;18.75;45.45;100740.09;5019175;28;20053;-92
2021/12/03 09:40:04;;;;;;;3.30;2.30;;;;;;;18.75;45.37;100750.81;5034852;28;20049;-92
2021/12/03 09:42:35;;;;;;;;;;;;;;;18.75;45.43;100749.97;5035899;28;20064;-93
2021/12/03 09:45:05;;;;;;;3.72;2.88;;;;;;;18.74;45.61;100753.66;5051856;28;20364;-92
2021/12/03 09:55:45;;;;;;;4.75;2.78;;;;;;;18.76;46.39;100755.22;5112474;27;20366;-92
2021/12/03 10:00:58;;;;;;;8.10;2.70;;;;;;;18.78;46.83;100765.81;5112009;28;20047;-91
2021/12/03 10:10:03;;;;;;;3.83;2.38;;;;;;;18.81;47.04;100768.25;5089206;28;20056;-89
2021/12/03 10:15:18;;;;;;;2.70;1.80;;;;;;;18.81;47.40;100760.19;5072880;28;20056;-89
2021/12/03 10:45:25;;;;;;;3.53;1.90;;;;;;;18.86;48.36;100783.94;4989479;28;20054;-78
2021/12/03 10:48:03;;;;;;;2.88;1.92;;;;;;;18.87;49.67;100777.59;4989296;28;20058;-77
2021/12/03 10:53:29;;;;;;;6.10;2.10;;;;;;;18.86;51.81;100778.56;4968866;28;20173;-78
2021/12/03 10:56:24;;;;;;;2.63;1.88;;;;;;;18.86;51.86;100786.63;4969640;28;20063;-77
2021/12/03 10:59:08;;;;;;;3.38;2.25;;;;;;;18.85;52.12;100783.09;4967902;28;20059;-77
2021/12/03 11:15:59;;;;;;;2.63;1.95;;;;;;;18.84;55.01;100785.88;4956148;29;20680;-77
2021/12/03 11:18:55;;;;;;;;;;;;;;;18.83;54.96;100786.88;4979224;28;20082;-77
2021/12/03 11:29:40;;;;;;;3.35;2.00;;;;;;;18.81;55.60;100783.50;4978310;28;20105;-76
2021/12/03 11:36:08;;;;;;;3.22;2.42;;;;;;;18.81;56.37;100775.44;5055838;28;20056;-77
2021/12/03 11:58:21;;;;;;;3.80;2.20;;;;;;;18.80;57.73;100771.91;5033167;28;20061;-78
2021/12/03 12:17:33;;;;;;;7.20;6.47;;;;;;;18.73;46.70;100766.22;5051912;28;20045;-77
2021/12/03 12:20:22;;;;;;;7.82;6.93;;;;;;;18.61;46.33;100761.00;5053795;28;20053;-76
2021/12/03 14:00:07;;;;;;;;;;;;;;;18.47;56.34;100746.03;4973030;28;20418;-78
2021/12/03 14:42:24;;;;;;;5.95;2.63;;;;;;;18.56;57.36;100790.88;5075380;28;20051;-78
2021/12/03 14:45:11;;;;;;;4.13;2.20;;;;;;;18.57;57.38;100791.72;5077244;28;20045;-78
2021/12/03 14:48:19;;;;;;;3.28;2.90;;;;;;;18.58;57.34;100796.94;5075583;28;20099;-78
2021/12/03 14:56:13;;;;;;;5.25;3.08;;;;;;;18.59;56.06;100814.72;5075996;28;20049;-77
2021/12/03 15:06:39;;;;;;;3.88;2.97;;;;;;;18.59;57.63;100814.72;5076186;28;20040;-77
2021/12/03 15:12:04;;;;;;;3.25;2.90;;;;;;;18.61;57.99;100817.31;5076204;28;20048;-79
2021/12/03 15:22:09;;;;;;;3.58;2.75;;;;;;;18.62;58.39;100829.72;5075732;28;20041;-79
2021/12/03 16:04:34;;;;;;;3.85;2.47;;;;;;;18.65;54.97;100842.88;5073565;28;20048;-77
2021/12/03 16:10:25;;;;;;;4.57;2.88;;;;;;;18.66;55.36;100858.00;5052775;28;20053;-79
2021/12/03 16:47:01;;;;;;;9.77;4.00;;;;;;;18.62;53.25;100859.22;5074088;28;20415;-77
2021/12/03 16:52:21;;;;;;;7.40;4.22;;;;;;;18.61;53.18;100866.41;5073433;28;20044;-77
2021/12/03 16:55:09;;;;;;;6.40;3.85;;;;;;;18.62;53.15;100876.16;5073464;28;20059;-77
2021/12/03 16:57:38;;;;;;;6.78;3.38;;;;;;;18.62;52.98;100886.88;5073892;28;20043;-77
2021/12/03 17:00:38;;;;;;;6.22;3.95;;;;;;;18.62;52.82;100891.41;5073478;28;20352;-77
2021/12/03 17:55:17;;;;;;;5.20;3.83;;;;;;;18.64;52.16;100957.34;5030970;28;20064;-78
2021/12/03 18:00:32;;;;;;;8.40;3.92;;;;;;;18.63;52.26;100962.81;5030522;28;20077;-79
2021/12/03 18:03:15;;;;;;;7.13;4.35;;;;;;;18.63;52.07;100966.34;5029415;28;20046;-79
2021/12/03 18:06:17;;;;;;;5.95;4.82;;;;;;;18.63;51.80;100977.06;5030565;28;20066;-78
2021/12/03 18:17:06;;;;;;;9.25;4.40;;;;;;;18.63;51.73;100974.38;5035637;28;20045;-79
2021/12/03 18:57:07;;;;;;;6.32;5.03;;;;;;;18.62;52.03;100991.44;5075651;28;20040;-79
2021/12/03 18:59:50;;;;;;;6.93;4.88;;;;;;;18.61;51.94;100992.44;5075974;28;20056;-79
2021/12/03 19:02:20;;;;;;;9.20;5.57;;;;;;;18.63;51.77;100997.66;5075407;28;20056;-79
2021/12/03 19:05:04;;;;;;;8.35;5.22;;;;;;;18.62;51.77;101002.19;5074530;28;20048;-82
2021/12/03 19:07:48;;;;;;;13.73;11.60;;;;;;;18.59;46.42;100998.88;5076119;28;20044;-80
2021/12/03 19:10:20;;;;;;;11.68;10.07;;;;;;;18.53;47.26;101001.09;5075099;28;20055;-78
2021/12/03 19:12:57;;;;;;;8.68;6.95;;;;;;;18.52;50.39;101002.06;5057596;28;20079;-80
2021/12/03 19:15:25;;;;;;;12.93;10.80;;;;;;;18.51;46.22;101003.06;5075430;28;20051;-79
2021/12/03 19:17:53;;;;;;;16.38;10.80;;;;;;;18.46;45.92;101001.69;5075103;28;20045;-79
2021/12/03 19:20:35;;;;;;;8.30;7.03;;;;;;;18.47;49.10;101008.75;5075612;28;20459;-79
2021/12/03 19:23:02;;;;;;;8.60;7.30;;;;;;;18.48;49.68;101015.84;5075385;28;20475;-79
2021/12/03 19:25:33;;;;;;;8.35;6.97;;;;;;;18.48;49.58;101005.13;5073853;28;20048;-79